Yahata_maru — JD3008 — position and weather

sailwx.info

Track history (hours):
 
Tides and Currents Weather Stations Pressure Air Temp Water Temp Dewpoint Dewpoint Depression Visibility Wind Speed Wind Dir Waves Ship Positions

Yahata_maru

Last reported at 2018-Jun-22 13:21 UTC. Time now 2018-Jun-25 17:31 UTC.
Position N 34°25' E 134°12'.

Length 74 m; draft 4.9 m.

Type: Cargo ship. MMSI: 431001106.

Date/timePositionNaut miles runAvg speedWind from/ knotsBaromVisibWave heightAir tempDewpointWater temp
2018-Jun-22 13:21N 34°25' E 134°12'411.5
2018-Jun-22 13:00N 34°24' E 134°17'612.2
2018-Jun-22 12:30N 34°26' E 134°25'612.2
2018-Jun-22 12:00N 34°29' E 134°31'612.6
2018-Jun-22 11:30N 34°31' E 134°38'712.9
2018-Jun-22 11:00N 34°33' E 134°46'813.3
2018-Jun-22 10:23N 34°36' E 134°55'512.6
2018-Jun-22 09:59N 34°37' E 135°01'612.1
2018-Jun-22 09:30N 34°33' E 135°05'713.1
2018-Jun-22 09:00N 34°26' E 135°06'713.2
2018-Jun-22 08:30N 34°20' E 135°04'5 9.0
2018-Jun-22 07:55N 34°15' E 135°06'1 0.1
2018-Jun-22 01:27N 34°14' E 135°07'0 0.0
2018-Jun-22 01:00N 34°14' E 135°07'1 2.0
2018-Jun-22 00:30N 34°15' E 135°06'0 0.0
2018-Jun-22 00:00N 34°15' E 135°06'0 0.0
2018-Jun-21 23:30N 34°15' E 135°06'0 0.0
2018-Jun-21 22:54N 34°15' E 135°06'0 0.0
2018-Jun-21 22:30N 34°15' E 135°06'0 0.1
2018-Jun-21 22:00N 34°15' E 135°06'0 0.0
2018-Jun-21 21:30N 34°15' E 135°06'0 0.0
2018-Jun-21 21:00N 34°15' E 135°06'0 0.0
2018-Jun-21 20:27N 34°15' E 135°06'0 0.0
2018-Jun-21 20:00N 34°15' E 135°06'0 0.0
2018-Jun-21 19:30N 34°15' E 135°06'0 0.0
2018-Jun-21 19:00N 34°15' E 135°06'0 0.0
2018-Jun-21 18:27N 34°15' E 135°06'0 0.0
2018-Jun-21 18:00N 34°15' E 135°06'0 0.0
2018-Jun-21 17:30N 34°15' E 135°06'0 0.0
2018-Jun-21 17:00N 34°15' E 135°06'0 0.0
2018-Jun-21 16:30N 34°15' E 135°06'0 0.1
2018-Jun-21 16:00N 34°15' E 135°06'0 0.1
2018-Jun-21 15:30N 34°15' E 135°06'0 0.0
2018-Jun-21 15:00N 34°15' E 135°06'0 0.0
2018-Jun-21 14:30N 34°15' E 135°06'0 0.0
2018-Jun-21 14:00N 34°15' E 135°06'0 0.0
2018-Jun-21 13:24N 34°15' E 135°06'0 0.0
2018-Jun-21 13:00N 34°15' E 135°06'0 0.0
2018-Jun-21 12:30N 34°15' E 135°06'0 0.0
2018-Jun-21 12:00N 34°15' E 135°06'0 0.0
2018-Jun-21 11:27N 34°15' E 135°06'0 0.1
2018-Jun-21 11:00N 34°15' E 135°06'0 0.0
2018-Jun-21 10:27N 34°15' E 135°06'0 0.0
2018-Jun-21 10:00N 34°15' E 135°06'0 0.0
2018-Jun-21 09:30N 34°15' E 135°06'0 0.2
2018-Jun-21 09:00N 34°15' E 135°06'3 5.9
2018-Jun-21 08:30N 34°17' E 135°03'611.9
2018-Jun-21 08:00N 34°22' E 135°07'612.1
2018-Jun-21 07:30N 34°27' E 135°12'612.2
2018-Jun-21 06:59N 34°31' E 135°17'612.5
2018-Jun-21 06:30N 34°36' E 135°22'4 8.2
2018-Jun-21 05:59N 34°35' E 135°27'1 0.1
2018-Jun-20 23:56N 34°34' E 135°27'1 1.5
2018-Jun-20 23:27N 34°35' E 135°27'2 5.5
2018-Jun-20 23:00N 34°36' E 135°24'3 5.8
2018-Jun-20 22:30N 34°33' E 135°23'3 5.5
2018-Jun-20 21:57N 34°31' E 135°25'0 0.0
2018-Jun-20 21:21N 34°31' E 135°25'0 0.0
2018-Jun-20 20:51N 34°31' E 135°25'0 0.0
2018-Jun-20 20:27N 34°31' E 135°25'0 0.0
2018-Jun-20 19:51N 34°31' E 135°25'0 0.0
2018-Jun-20 19:21N 34°31' E 135°25'0 0.0
2018-Jun-20 18:51N 34°31' E 135°25'0 0.0
2018-Jun-20 18:27N 34°31' E 135°25'0 0.0
2018-Jun-20 18:00N 34°31' E 135°25'0 0.0
2018-Jun-20 17:27N 34°31' E 135°25'0 0.0
2018-Jun-20 16:57N 34°31' E 135°25'0 0.0
2018-Jun-20 16:24N 34°31' E 135°25'0 0.0
2018-Jun-20 15:57N 34°31' E 135°25'0 0.0
2018-Jun-20 15:27N 34°31' E 135°25'0 0.0
2018-Jun-20 14:57N 34°31' E 135°25'0 0.0
2018-Jun-20 14:27N 34°31' E 135°25'0 0.0
2018-Jun-20 13:51N 34°31' E 135°25'0 0.0
2018-Jun-20 13:27N 34°31' E 135°25'0 0.0
2018-Jun-20 12:57N 34°31' E 135°25'0 0.0
2018-Jun-20 12:21N 34°31' E 135°25'0 0.0
2018-Jun-20 11:57N 34°31' E 135°25'0 0.0
2018-Jun-20 11:21N 34°31' E 135°25'0 0.0
2018-Jun-20 10:57N 34°31' E 135°25'0 0.0
2018-Jun-20 10:27N 34°31' E 135°25'0 0.0
2018-Jun-20 09:57N 34°31' E 135°25'0 0.0
2018-Jun-20 09:21N 34°31' E 135°25'0 0.0
2018-Jun-20 08:51N 34°31' E 135°25'0 0.0
2018-Jun-20 08:27N 34°31' E 135°25'0 0.0
2018-Jun-20 07:57N 34°31' E 135°25'0 0.0
2018-Jun-20 07:15N 34°31' E 135°25'0 0.0
2018-Jun-20 06:51N 34°31' E 135°25'0 0.0
2018-Jun-20 06:21N 34°31' E 135°25'0 0.0
2018-Jun-20 05:57N 34°31' E 135°25'0 0.0
2018-Jun-20 05:15N 34°31' E 135°25'0 0.0
2018-Jun-20 04:57N 34°31' E 135°25'0 0.0
2018-Jun-20 04:27N 34°31' E 135°25'0 0.0
2018-Jun-20 04:00N 34°31' E 135°25'0 0.0
2018-Jun-20 02:51N 34°31' E 135°25'0 0.0
2018-Jun-20 02:27N 34°31' E 135°25'0 0.0
2018-Jun-20 01:15N 34°31' E 135°25'0 0.0
2018-Jun-20 00:57N 34°31' E 135°25'0 0.0
2018-Jun-20 00:15N 34°31' E 135°25'0 0.0
2018-Jun-19 23:51N 34°31' E 135°25'0 0.0
2018-Jun-19 23:21N 34°31' E 135°25'0 0.0
2018-Jun-19 23:00N 34°31' E 135°25'0 0.1
2018-Jun-19 22:30N 34°31' E 135°24'1 2.1
2018-Jun-19 21:59N 34°32' E 135°24'2 4.9
2018-Jun-19 21:30N 34°32' E 135°21'0 0.1
2018-Jun-19 20:59N 34°32' E 135°21'0 0.0
2018-Jun-19 20:30N 34°32' E 135°21'2 4.0
2018-Jun-19 20:00N 34°31' E 135°19'611.8
2018-Jun-19 19:31N 34°28' E 135°13'612.0
2018-Jun-19 19:01N 34°24' E 135°08'611.7
2018-Jun-19 18:30N 34°20' E 135°02'611.3
2018-Jun-19 18:01N 34°16' E 134°59'612.4
2018-Jun-19 17:31N 34°09' E 134°59'612.4
2018-Jun-19 17:00N 34°03' E 135°00'612.6
2018-Jun-19 16:30N 33°57' E 135°01'  
2018-Jun-13 09:18N 35°13' E 139°46'412.1
2018-Jun-13 09:00N 35°17' E 139°45'612.1
2018-Jun-13 08:30N 35°22' E 139°42'611.7
2018-Jun-13 08:00N 35°27' E 139°47'  
Track history (hours):
 
Tides and Currents Weather Stations Pressure Air Temp Water Temp Dewpoint Dewpoint Depression Visibility Wind Speed Wind Dir Waves Ship Positions

Yahata_maru

Last reported at 2018-Jun-22 13:21 UTC. Time now 2018-Jun-25 17:31 UTC.
Position N 34°25' E 134°12'.

Length 74 m; draft 4.9 m.

Type: Cargo ship. MMSI: 431001106.

Date/timePositionNaut miles runAvg speedWind from/ knotsBaromVisibWave heightAir tempDewpointWater temp
2018-Jun-22 13:21N 34°25' E 134°12'411.5
2018-Jun-22 13:00N 34°24' E 134°17'612.2
2018-Jun-22 12:30N 34°26' E 134°25'612.2
2018-Jun-22 12:00N 34°29' E 134°31'612.6
2018-Jun-22 11:30N 34°31' E 134°38'712.9
2018-Jun-22 11:00N 34°33' E 134°46'813.3
2018-Jun-22 10:23N 34°36' E 134°55'512.6
2018-Jun-22 09:59N 34°37' E 135°01'612.1
2018-Jun-22 09:30N 34°33' E 135°05'713.1
2018-Jun-22 09:00N 34°26' E 135°06'713.2
2018-Jun-22 08:30N 34°20' E 135°04'5 9.0
2018-Jun-22 07:55N 34°15' E 135°06'1 0.1
2018-Jun-22 01:27N 34°14' E 135°07'0 0.0
2018-Jun-22 01:00N 34°14' E 135°07'1 2.0
2018-Jun-22 00:30N 34°15' E 135°06'0 0.0
2018-Jun-22 00:00N 34°15' E 135°06'0 0.0
2018-Jun-21 23:30N 34°15' E 135°06'0 0.0
2018-Jun-21 22:54N 34°15' E 135°06'0 0.0
2018-Jun-21 22:30N 34°15' E 135°06'0 0.1
2018-Jun-21 22:00N 34°15' E 135°06'0 0.0
2018-Jun-21 21:30N 34°15' E 135°06'0 0.0
2018-Jun-21 21:00N 34°15' E 135°06'0 0.0
2018-Jun-21 20:27N 34°15' E 135°06'0 0.0
2018-Jun-21 20:00N 34°15' E 135°06'0 0.0
2018-Jun-21 19:30N 34°15' E 135°06'0 0.0
2018-Jun-21 19:00N 34°15' E 135°06'0 0.0
2018-Jun-21 18:27N 34°15' E 135°06'0 0.0
2018-Jun-21 18:00N 34°15' E 135°06'0 0.0
2018-Jun-21 17:30N 34°15' E 135°06'0 0.0
2018-Jun-21 17:00N 34°15' E 135°06'0 0.0
2018-Jun-21 16:30N 34°15' E 135°06'0 0.1
2018-Jun-21 16:00N 34°15' E 135°06'0 0.1
2018-Jun-21 15:30N 34°15' E 135°06'0 0.0
2018-Jun-21 15:00N 34°15' E 135°06'0 0.0
2018-Jun-21 14:30N 34°15' E 135°06'0 0.0
2018-Jun-21 14:00N 34°15' E 135°06'0 0.0
2018-Jun-21 13:24N 34°15' E 135°06'0 0.0
2018-Jun-21 13:00N 34°15' E 135°06'0 0.0
2018-Jun-21 12:30N 34°15' E 135°06'0 0.0
2018-Jun-21 12:00N 34°15' E 135°06'0 0.0
2018-Jun-21 11:27N 34°15' E 135°06'0 0.1
2018-Jun-21 11:00N 34°15' E 135°06'0 0.0
2018-Jun-21 10:27N 34°15' E 135°06'0 0.0
2018-Jun-21 10:00N 34°15' E 135°06'0 0.0
2018-Jun-21 09:30N 34°15' E 135°06'0 0.2
2018-Jun-21 09:00N 34°15' E 135°06'3 5.9
2018-Jun-21 08:30N 34°17' E 135°03'611.9
2018-Jun-21 08:00N 34°22' E 135°07'612.1
2018-Jun-21 07:30N 34°27' E 135°12'612.2
2018-Jun-21 06:59N 34°31' E 135°17'612.5
2018-Jun-21 06:30N 34°36' E 135°22'4 8.2
2018-Jun-21 05:59N 34°35' E 135°27'1 0.1
2018-Jun-20 23:56N 34°34' E 135°27'1 1.5
2018-Jun-20 23:27N 34°35' E 135°27'2 5.5
2018-Jun-20 23:00N 34°36' E 135°24'3 5.8
2018-Jun-20 22:30N 34°33' E 135°23'3 5.5
2018-Jun-20 21:57N 34°31' E 135°25'0 0.0
2018-Jun-20 21:21N 34°31' E 135°25'0 0.0
2018-Jun-20 20:51N 34°31' E 135°25'0 0.0
2018-Jun-20 20:27N 34°31' E 135°25'0 0.0
2018-Jun-20 19:51N 34°31' E 135°25'0 0.0
2018-Jun-20 19:21N 34°31' E 135°25'0 0.0
2018-Jun-20 18:51N 34°31' E 135°25'0 0.0
2018-Jun-20 18:27N 34°31' E 135°25'0 0.0
2018-Jun-20 18:00N 34°31' E 135°25'0 0.0
2018-Jun-20 17:27N 34°31' E 135°25'0 0.0
2018-Jun-20 16:57N 34°31' E 135°25'0 0.0
2018-Jun-20 16:24N 34°31' E 135°25'0 0.0
2018-Jun-20 15:57N 34°31' E 135°25'0 0.0
2018-Jun-20 15:27N 34°31' E 135°25'0 0.0
2018-Jun-20 14:57N 34°31' E 135°25'0 0.0
2018-Jun-20 14:27N 34°31' E 135°25'0 0.0
2018-Jun-20 13:51N 34°31' E 135°25'0 0.0
2018-Jun-20 13:27N 34°31' E 135°25'0 0.0
2018-Jun-20 12:57N 34°31' E 135°25'0 0.0
2018-Jun-20 12:21N 34°31' E 135°25'0 0.0
2018-Jun-20 11:57N 34°31' E 135°25'0 0.0
2018-Jun-20 11:21N 34°31' E 135°25'0 0.0
2018-Jun-20 10:57N 34°31' E 135°25'0 0.0
2018-Jun-20 10:27N 34°31' E 135°25'0 0.0
2018-Jun-20 09:57N 34°31' E 135°25'0 0.0
2018-Jun-20 09:21N 34°31' E 135°25'0 0.0
2018-Jun-20 08:51N 34°31' E 135°25'0 0.0
2018-Jun-20 08:27N 34°31' E 135°25'0 0.0
2018-Jun-20 07:57N 34°31' E 135°25'0 0.0
2018-Jun-20 07:15N 34°31' E 135°25'0 0.0
2018-Jun-20 06:51N 34°31' E 135°25'0 0.0
2018-Jun-20 06:21N 34°31' E 135°25'0 0.0
2018-Jun-20 05:57N 34°31' E 135°25'0 0.0
2018-Jun-20 05:15N 34°31' E 135°25'0 0.0
2018-Jun-20 04:57N 34°31' E 135°25'0 0.0
2018-Jun-20 04:27N 34°31' E 135°25'0 0.0
2018-Jun-20 04:00N 34°31' E 135°25'0 0.0
2018-Jun-20 02:51N 34°31' E 135°25'0 0.0
2018-Jun-20 02:27N 34°31' E 135°25'0 0.0
2018-Jun-20 01:15N 34°31' E 135°25'0 0.0
2018-Jun-20 00:57N 34°31' E 135°25'0 0.0
2018-Jun-20 00:15N 34°31' E 135°25'0 0.0
2018-Jun-19 23:51N 34°31' E 135°25'0 0.0
2018-Jun-19 23:21N 34°31' E 135°25'0 0.0
2018-Jun-19 23:00N 34°31' E 135°25'0 0.1
2018-Jun-19 22:30N 34°31' E 135°24'1 2.1
2018-Jun-19 21:59N 34°32' E 135°24'2 4.9
2018-Jun-19 21:30N 34°32' E 135°21'0 0.1
2018-Jun-19 20:59N 34°32' E 135°21'0 0.0
2018-Jun-19 20:30N 34°32' E 135°21'2 4.0
2018-Jun-19 20:00N 34°31' E 135°19'611.8
2018-Jun-19 19:31N 34°28' E 135°13'612.0
2018-Jun-19 19:01N 34°24' E 135°08'611.7
2018-Jun-19 18:30N 34°20' E 135°02'611.3
2018-Jun-19 18:01N 34°16' E 134°59'612.4
2018-Jun-19 17:31N 34°09' E 134°59'612.4
2018-Jun-19 17:00N 34°03' E 135°00'612.6
2018-Jun-19 16:30N 33°57' E 135°01'  
2018-Jun-13 09:18N 35°13' E 139°46'412.1
2018-Jun-13 09:00N 35°17' E 139°45'612.1
2018-Jun-13 08:30N 35°22' E 139°42'611.7
2018-Jun-13 08:00N 35°27' E 139°47'  

Dump ship's entire track history